sensor_id;sensor_type;location;lat;lon;timestamp;P1;durP1;ratioP1;P2;durP2;ratioP2
5299;SDS011;2672;42.670;23.258;2023-02-28T00:00:10;21.53;;;11.00;;
5299;SDS011;2672;42.670;23.258;2023-02-28T00:02:37;19.47;;;11.30;;
5299;SDS011;2672;42.670;23.258;2023-02-28T00:05:02;21.60;;;11.23;;
5299;SDS011;2672;42.670;23.258;2023-02-28T00:07:28;23.83;;;11.20;;
5299;SDS011;2672;42.670;23.258;2023-02-28T00:09:55;21.20;;;11.53;;
5299;SDS011;2672;42.670;23.258;2023-02-28T00:12:25;18.87;;;10.07;;
5299;SDS011;2672;42.670;23.258;2023-02-28T00:14:50;20.93;;;11.63;;
5299;SDS011;2672;42.670;23.258;2023-02-28T00:17:15;22.80;;;11.80;;
5299;SDS011;2672;42.670;23.258;2023-02-28T00:19:42;20.97;;;11.30;;
5299;SDS011;2672;42.670;23.258;2023-02-28T00:22:08;19.40;;;10.77;;
5299;SDS011;2672;42.670;23.258;2023-02-28T00:24:33;16.60;;;10.20;;
5299;SDS011;2672;42.670;23.258;2023-02-28T00:26:58;20.13;;;11.77;;
5299;SDS011;2672;42.670;23.258;2023-02-28T00:29:24;13.70;;;9.33;;
5299;SDS011;2672;42.670;23.258;2023-02-28T00:31:49;16.80;;;10.10;;
5299;SDS011;2672;42.670;23.258;2023-02-28T00:34:14;13.67;;;8.93;;
5299;SDS011;2672;42.670;23.258;2023-02-28T00:36:40;17.57;;;9.23;;
5299;SDS011;2672;42.670;23.258;2023-02-28T00:39:10;14.80;;;9.83;;
5299;SDS011;2672;42.670;23.258;2023-02-28T00:41:35;21.00;;;10.43;;
5299;SDS011;2672;42.670;23.258;2023-02-28T00:44:00;15.63;;;10.13;;
5299;SDS011;2672;42.670;23.258;2023-02-28T00:46:26;16.20;;;9.53;;
5299;SDS011;2672;42.670;23.258;2023-02-28T00:48:51;16.03;;;10.10;;
5299;SDS011;2672;42.670;23.258;2023-02-28T00:51:16;25.30;;;11.10;;
5299;SDS011;2672;42.670;23.258;2023-02-28T00:53:41;18.30;;;11.33;;
5299;SDS011;2672;42.670;23.258;2023-02-28T00:56:07;20.50;;;11.30;;
5299;SDS011;2672;42.670;23.258;2023-02-28T00:58:32;28.83;;;12.73;;
5299;SDS011;2672;42.670;23.258;2023-02-28T01:00:57;24.73;;;12.30;;
5299;SDS011;2672;42.670;23.258;2023-02-28T01:03:22;31.20;;;14.30;;
5299;SDS011;2672;42.670;23.258;2023-02-28T01:05:48;23.90;;;13.60;;
5299;SDS011;2672;42.670;23.258;2023-02-28T01:08:13;26.47;;;14.10;;
5299;SDS011;2672;42.670;23.258;2023-02-28T01:10:42;25.30;;;14.80;;
5299;SDS011;2672;42.670;23.258;2023-02-28T01:13:07;45.50;;;17.40;;
5299;SDS011;2672;42.670;23.258;2023-02-28T01:15:32;31.10;;;15.67;;
5299;SDS011;2672;42.670;23.258;2023-02-28T01:17:58;30.60;;;15.03;;
5299;SDS011;2672;42.670;23.258;2023-02-28T01:20:23;30.77;;;14.63;;
5299;SDS011;2672;42.670;23.258;2023-02-28T01:22:49;28.20;;;14.87;;
5299;SDS011;2672;42.670;23.258;2023-02-28T01:25:14;26.23;;;15.10;;
5299;SDS011;2672;42.670;23.258;2023-02-28T01:27:39;29.07;;;14.63;;
5299;SDS011;2672;42.670;23.258;2023-02-28T01:30:05;29.07;;;15.53;;
5299;SDS011;2672;42.670;23.258;2023-02-28T01:32:30;32.27;;;14.80;;
5299;SDS011;2672;42.670;23.258;2023-02-28T01:34:56;35.53;;;15.87;;
5299;SDS011;2672;42.670;23.258;2023-02-28T01:37:21;36.37;;;16.43;;
5299;SDS011;2672;42.670;23.258;2023-02-28T01:39:46;32.57;;;17.80;;
5299;SDS011;2672;42.670;23.258;2023-02-28T01:42:11;34.10;;;15.03;;
5299;SDS011;2672;42.670;23.258;2023-02-28T01:47:21;27.00;;;15.37;;
5299;SDS011;2672;42.670;23.258;2023-02-28T01:49:47;37.07;;;16.63;;
5299;SDS011;2672;42.670;23.258;2023-02-28T01:52:12;34.80;;;16.00;;
5299;SDS011;2672;42.670;23.258;2023-02-28T01:54:43;37.00;;;15.97;;
5299;SDS011;2672;42.670;23.258;2023-02-28T01:57:11;37.13;;;16.57;;
5299;SDS011;2672;42.670;23.258;2023-02-28T01:59:39;35.20;;;17.70;;
5299;SDS011;2672;42.670;23.258;2023-02-28T02:02:10;33.73;;;16.57;;
5299;SDS011;2672;42.670;23.258;2023-02-28T02:04:37;38.20;;;16.07;;
5299;SDS011;2672;42.670;23.258;2023-02-28T02:07:03;40.80;;;16.90;;
5299;SDS011;2672;42.670;23.258;2023-02-28T02:09:29;37.90;;;16.97;;
5299;SDS011;2672;42.670;23.258;2023-02-28T02:11:54;57.07;;;16.77;;
5299;SDS011;2672;42.670;23.258;2023-02-28T02:14:43;42.17;;;17.17;;
5299;SDS011;2672;42.670;23.258;2023-02-28T02:22:12;31.37;;;15.03;;
5299;SDS011;2672;42.670;23.258;2023-02-28T02:25:02;65.93;;;17.97;;
5299;SDS011;2672;42.670;23.258;2023-02-28T02:30:18;41.20;;;16.80;;
5299;SDS011;2672;42.670;23.258;2023-02-28T02:40:25;31.83;;;15.87;;
5299;SDS011;2672;42.670;23.258;2023-02-28T02:42:54;40.63;;;17.60;;
5299;SDS011;2672;42.670;23.258;2023-02-28T02:48:01;49.00;;;16.80;;
5299;SDS011;2672;42.670;23.258;2023-02-28T02:50:29;41.97;;;16.60;;
5299;SDS011;2672;42.670;23.258;2023-02-28T02:52:56;36.80;;;16.20;;
5299;SDS011;2672;42.670;23.258;2023-02-28T02:55:22;48.87;;;14.97;;
5299;SDS011;2672;42.670;23.258;2023-02-28T02:57:58;37.83;;;15.70;;
5299;SDS011;2672;42.670;23.258;2023-02-28T03:00:32;35.60;;;15.10;;
5299;SDS011;2672;42.670;23.258;2023-02-28T03:02:59;37.87;;;15.80;;
5299;SDS011;2672;42.670;23.258;2023-02-28T03:05:30;34.17;;;15.93;;
5299;SDS011;2672;42.670;23.258;2023-02-28T03:07:57;32.90;;;16.80;;
5299;SDS011;2672;42.670;23.258;2023-02-28T03:10:26;34.80;;;14.93;;
5299;SDS011;2672;42.670;23.258;2023-02-28T03:12:55;35.20;;;15.13;;
5299;SDS011;2672;42.670;23.258;2023-02-28T03:15:33;33.80;;;15.10;;
5299;SDS011;2672;42.670;23.258;2023-02-28T03:18:02;39.30;;;16.50;;
5299;SDS011;2672;42.670;23.258;2023-02-28T03:20:35;37.63;;;15.73;;
5299;SDS011;2672;42.670;23.258;2023-02-28T03:25:44;32.53;;;15.07;;
5299;SDS011;2672;42.670;23.258;2023-02-28T03:30:50;92.40;;;17.40;;
5299;SDS011;2672;42.670;23.258;2023-02-28T03:35:48;32.63;;;14.70;;
5299;SDS011;2672;42.670;23.258;2023-02-28T03:38:19;56.80;;;17.27;;
5299;SDS011;2672;42.670;23.258;2023-02-28T03:40:50;50.13;;;18.00;;
5299;SDS011;2672;42.670;23.258;2023-02-28T03:43:22;46.00;;;16.43;;
5299;SDS011;2672;42.670;23.258;2023-02-28T03:45:49;60.07;;;16.60;;
5299;SDS011;2672;42.670;23.258;2023-02-28T03:48:16;35.83;;;16.07;;
5299;SDS011;2672;42.670;23.258;2023-02-28T03:50:44;38.10;;;15.27;;
5299;SDS011;2672;42.670;23.258;2023-02-28T03:55:40;46.53;;;18.47;;
5299;SDS011;2672;42.670;23.258;2023-02-28T04:00:43;40.10;;;17.03;;
5299;SDS011;2672;42.670;23.258;2023-02-28T04:03:10;38.73;;;17.37;;
5299;SDS011;2672;42.670;23.258;2023-02-28T04:05:45;66.03;;;19.80;;
5299;SDS011;2672;42.670;23.258;2023-02-28T04:08:11;36.07;;;15.70;;
5299;SDS011;2672;42.670;23.258;2023-02-28T04:10:36;50.43;;;17.90;;
5299;SDS011;2672;42.670;23.258;2023-02-28T04:13:02;42.17;;;18.40;;
5299;SDS011;2672;42.670;23.258;2023-02-28T04:15:27;50.90;;;19.13;;
5299;SDS011;2672;42.670;23.258;2023-02-28T04:17:53;53.33;;;20.40;;
5299;SDS011;2672;42.670;23.258;2023-02-28T04:20:18;35.77;;;17.50;;
5299;SDS011;2672;42.670;23.258;2023-02-28T04:22:43;50.47;;;19.47;;
5299;SDS011;2672;42.670;23.258;2023-02-28T04:25:09;44.40;;;18.13;;
5299;SDS011;2672;42.670;23.258;2023-02-28T04:27:34;84.67;;;19.57;;
5299;SDS011;2672;42.670;23.258;2023-02-28T04:29:59;52.10;;;17.97;;
5299;SDS011;2672;42.670;23.258;2023-02-28T04:32:25;54.30;;;19.87;;
5299;SDS011;2672;42.670;23.258;2023-02-28T04:34:50;37.83;;;16.60;;
5299;SDS011;2672;42.670;23.258;2023-02-28T04:37:15;46.80;;;17.77;;
5299;SDS011;2672;42.670;23.258;2023-02-28T04:39:41;64.63;;;21.63;;
5299;SDS011;2672;42.670;23.258;2023-02-28T04:42:07;56.37;;;23.67;;
5299;SDS011;2672;42.670;23.258;2023-02-28T04:44:32;64.03;;;22.07;;
5299;SDS011;2672;42.670;23.258;2023-02-28T04:46:57;53.10;;;21.90;;
5299;SDS011;2672;42.670;23.258;2023-02-28T04:49:23;58.50;;;21.80;;
5299;SDS011;2672;42.670;23.258;2023-02-28T04:51:48;42.87;;;18.30;;
5299;SDS011;2672;42.670;23.258;2023-02-28T04:54:14;45.10;;;18.47;;
5299;SDS011;2672;42.670;23.258;2023-02-28T04:56:43;42.07;;;18.30;;
5299;SDS011;2672;42.670;23.258;2023-02-28T04:59:09;46.33;;;21.00;;
5299;SDS011;2672;42.670;23.258;2023-02-28T05:01:34;52.87;;;19.30;;
5299;SDS011;2672;42.670;23.258;2023-02-28T05:04:00;47.57;;;17.93;;
5299;SDS011;2672;42.670;23.258;2023-02-28T05:06:27;42.03;;;16.97;;
5299;SDS011;2672;42.670;23.258;2023-02-28T05:08:52;43.20;;;17.63;;
5299;SDS011;2672;42.670;23.258;2023-02-28T05:11:19;50.17;;;21.30;;
5299;SDS011;2672;42.670;23.258;2023-02-28T05:13:45;48.40;;;21.83;;
5299;SDS011;2672;42.670;23.258;2023-02-28T05:16:11;42.40;;;18.93;;
5299;SDS011;2672;42.670;23.258;2023-02-28T05:18:36;40.43;;;17.50;;
5299;SDS011;2672;42.670;23.258;2023-02-28T05:21:01;44.50;;;18.67;;
5299;SDS011;2672;42.670;23.258;2023-02-28T05:23:29;53.37;;;20.00;;
5299;SDS011;2672;42.670;23.258;2023-02-28T05:25:55;49.80;;;20.63;;
5299;SDS011;2672;42.670;23.258;2023-02-28T05:28:20;50.70;;;22.83;;
5299;SDS011;2672;42.670;23.258;2023-02-28T05:30:46;47.00;;;21.07;;
5299;SDS011;2672;42.670;23.258;2023-02-28T05:33:12;46.57;;;19.93;;
5299;SDS011;2672;42.670;23.258;2023-02-28T05:35:40;45.13;;;20.27;;
5299;SDS011;2672;42.670;23.258;2023-02-28T05:38:06;52.80;;;22.40;;
5299;SDS011;2672;42.670;23.258;2023-02-28T05:40:32;114.80;;;46.20;;
5299;SDS011;2672;42.670;23.258;2023-02-28T05:42:57;57.53;;;24.57;;
5299;SDS011;2672;42.670;23.258;2023-02-28T05:45:22;45.20;;;20.53;;
5299;SDS011;2672;42.670;23.258;2023-02-28T05:47:48;38.10;;;18.90;;
5299;SDS011;2672;42.670;23.258;2023-02-28T05:50:13;55.73;;;20.80;;
5299;SDS011;2672;42.670;23.258;2023-02-28T05:52:38;42.97;;;19.17;;
5299;SDS011;2672;42.670;23.258;2023-02-28T05:55:03;45.50;;;21.13;;
5299;SDS011;2672;42.670;23.258;2023-02-28T05:57:29;44.40;;;19.13;;
5299;SDS011;2672;42.670;23.258;2023-02-28T05:59:54;43.50;;;19.03;;
5299;SDS011;2672;42.670;23.258;2023-02-28T06:02:19;42.03;;;18.03;;
5299;SDS011;2672;42.670;23.258;2023-02-28T06:04:45;47.30;;;19.70;;
5299;SDS011;2672;42.670;23.258;2023-02-28T06:07:11;48.70;;;19.93;;
5299;SDS011;2672;42.670;23.258;2023-02-28T06:09:36;43.57;;;18.83;;
5299;SDS011;2672;42.670;23.258;2023-02-28T06:12:02;45.67;;;18.00;;
5299;SDS011;2672;42.670;23.258;2023-02-28T06:14:32;35.63;;;14.93;;
5299;SDS011;2672;42.670;23.258;2023-02-28T06:19:42;56.87;;;20.63;;
5299;SDS011;2672;42.670;23.258;2023-02-28T06:22:07;55.47;;;23.30;;
5299;SDS011;2672;42.670;23.258;2023-02-28T06:24:32;52.23;;;22.00;;
5299;SDS011;2672;42.670;23.258;2023-02-28T06:26:57;43.67;;;20.80;;
5299;SDS011;2672;42.670;23.258;2023-02-28T06:29:29;43.20;;;16.27;;
5299;SDS011;2672;42.670;23.258;2023-02-28T06:31:55;32.60;;;16.40;;
5299;SDS011;2672;42.670;23.258;2023-02-28T06:34:20;30.57;;;15.77;;
5299;SDS011;2672;42.670;23.258;2023-02-28T06:36:45;44.33;;;20.60;;
5299;SDS011;2672;42.670;23.258;2023-02-28T06:39:10;50.33;;;21.20;;
5299;SDS011;2672;42.670;23.258;2023-02-28T06:41:36;53.70;;;21.93;;
5299;SDS011;2672;42.670;23.258;2023-02-28T06:44:13;46.63;;;20.83;;
5299;SDS011;2672;42.670;23.258;2023-02-28T06:46:41;47.47;;;20.57;;
5299;SDS011;2672;42.670;23.258;2023-02-28T06:49:07;45.27;;;20.67;;
5299;SDS011;2672;42.670;23.258;2023-02-28T06:51:36;56.00;;;21.27;;
5299;SDS011;2672;42.670;23.258;2023-02-28T06:54:02;53.47;;;22.20;;
5299;SDS011;2672;42.670;23.258;2023-02-28T06:56:27;53.40;;;20.90;;
5299;SDS011;2672;42.670;23.258;2023-02-28T06:58:53;57.77;;;21.10;;
5299;SDS011;2672;42.670;23.258;2023-02-28T07:01:18;46.43;;;19.87;;
5299;SDS011;2672;42.670;23.258;2023-02-28T07:03:44;45.83;;;21.10;;
5299;SDS011;2672;42.670;23.258;2023-02-28T07:06:09;55.90;;;24.03;;
5299;SDS011;2672;42.670;23.258;2023-02-28T07:08:35;46.43;;;20.80;;
5299;SDS011;2672;42.670;23.258;2023-02-28T07:11:01;50.47;;;20.70;;
5299;SDS011;2672;42.670;23.258;2023-02-28T07:13:26;52.10;;;22.57;;
5299;SDS011;2672;42.670;23.258;2023-02-28T07:15:53;56.13;;;25.90;;
5299;SDS011;2672;42.670;23.258;2023-02-28T07:18:18;51.07;;;23.83;;
5299;SDS011;2672;42.670;23.258;2023-02-28T07:20:44;49.90;;;23.20;;
5299;SDS011;2672;42.670;23.258;2023-02-28T07:23:09;57.43;;;22.27;;
5299;SDS011;2672;42.670;23.258;2023-02-28T07:25:34;55.47;;;24.40;;
5299;SDS011;2672;42.670;23.258;2023-02-28T07:28:00;58.03;;;22.23;;
5299;SDS011;2672;42.670;23.258;2023-02-28T07:30:25;59.97;;;25.63;;
5299;SDS011;2672;42.670;23.258;2023-02-28T07:32:50;55.23;;;23.07;;
5299;SDS011;2672;42.670;23.258;2023-02-28T07:35:15;50.17;;;22.13;;
5299;SDS011;2672;42.670;23.258;2023-02-28T07:37:41;57.60;;;23.60;;
5299;SDS011;2672;42.670;23.258;2023-02-28T07:40:07;52.60;;;21.43;;
5299;SDS011;2672;42.670;23.258;2023-02-28T07:42:35;53.87;;;21.50;;
5299;SDS011;2672;42.670;23.258;2023-02-28T07:45:00;42.43;;;21.37;;
5299;SDS011;2672;42.670;23.258;2023-02-28T07:47:26;47.20;;;20.60;;
5299;SDS011;2672;42.670;23.258;2023-02-28T07:49:51;52.07;;;22.13;;
5299;SDS011;2672;42.670;23.258;2023-02-28T07:52:16;61.17;;;21.90;;
5299;SDS011;2672;42.670;23.258;2023-02-28T07:54:42;46.33;;;21.70;;
5299;SDS011;2672;42.670;23.258;2023-02-28T07:57:07;56.30;;;21.70;;
5299;SDS011;2672;42.670;23.258;2023-02-28T07:59:33;49.27;;;21.87;;
5299;SDS011;2672;42.670;23.258;2023-02-28T08:01:58;48.17;;;20.47;;
5299;SDS011;2672;42.670;23.258;2023-02-28T08:04:24;51.17;;;22.83;;
5299;SDS011;2672;42.670;23.258;2023-02-28T08:06:49;52.30;;;22.27;;
5299;SDS011;2672;42.670;23.258;2023-02-28T08:09:16;46.83;;;22.23;;
5299;SDS011;2672;42.670;23.258;2023-02-28T08:11:42;62.00;;;22.97;;
5299;SDS011;2672;42.670;23.258;2023-02-28T08:14:07;55.90;;;23.20;;
5299;SDS011;2672;42.670;23.258;2023-02-28T08:16:32;58.97;;;22.40;;
5299;SDS011;2672;42.670;23.258;2023-02-28T08:18:57;48.80;;;20.80;;
5299;SDS011;2672;42.670;23.258;2023-02-28T08:21:23;78.27;;;23.27;;
5299;SDS011;2672;42.670;23.258;2023-02-28T08:23:48;55.40;;;22.13;;
5299;SDS011;2672;42.670;23.258;2023-02-28T08:26:15;56.50;;;23.57;;
5299;SDS011;2672;42.670;23.258;2023-02-28T08:28:40;48.33;;;22.83;;
5299;SDS011;2672;42.670;23.258;2023-02-28T08:31:09;62.67;;;23.13;;
5299;SDS011;2672;42.670;23.258;2023-02-28T08:33:35;48.47;;;22.87;;
5299;SDS011;2672;42.670;23.258;2023-02-28T08:36:01;65.03;;;24.13;;
5299;SDS011;2672;42.670;23.258;2023-02-28T08:38:26;47.33;;;23.50;;
5299;SDS011;2672;42.670;23.258;2023-02-28T08:40:58;56.33;;;22.37;;
5299;SDS011;2672;42.670;23.258;2023-02-28T08:43:23;58.90;;;22.87;;
5299;SDS011;2672;42.670;23.258;2023-02-28T08:45:51;59.87;;;24.27;;
5299;SDS011;2672;42.670;23.258;2023-02-28T08:48:16;49.17;;;21.20;;
5299;SDS011;2672;42.670;23.258;2023-02-28T08:50:41;51.47;;;23.03;;
5299;SDS011;2672;42.670;23.258;2023-02-28T08:53:06;60.27;;;23.20;;
5299;SDS011;2672;42.670;23.258;2023-02-28T08:55:32;54.90;;;23.90;;
5299;SDS011;2672;42.670;23.258;2023-02-28T08:57:57;51.77;;;24.10;;
5299;SDS011;2672;42.670;23.258;2023-02-28T09:00:23;57.03;;;22.77;;
5299;SDS011;2672;42.670;23.258;2023-02-28T09:02:48;51.77;;;22.87;;
5299;SDS011;2672;42.670;23.258;2023-02-28T09:05:14;48.77;;;22.93;;
5299;SDS011;2672;42.670;23.258;2023-02-28T09:07:39;51.37;;;23.43;;
5299;SDS011;2672;42.670;23.258;2023-02-28T09:10:04;50.67;;;23.70;;
5299;SDS011;2672;42.670;23.258;2023-02-28T09:12:32;55.90;;;24.13;;
5299;SDS011;2672;42.670;23.258;2023-02-28T09:14:57;53.80;;;24.47;;
5299;SDS011;2672;42.670;23.258;2023-02-28T09:17:22;52.27;;;23.70;;
5299;SDS011;2672;42.670;23.258;2023-02-28T09:19:48;46.20;;;21.50;;
5299;SDS011;2672;42.670;23.258;2023-02-28T09:22:14;53.23;;;23.60;;
5299;SDS011;2672;42.670;23.258;2023-02-28T09:24:39;58.57;;;24.93;;
5299;SDS011;2672;42.670;23.258;2023-02-28T09:27:04;52.00;;;23.40;;
5299;SDS011;2672;42.670;23.258;2023-02-28T09:29:33;56.83;;;23.47;;
5299;SDS011;2672;42.670;23.258;2023-02-28T09:31:58;60.60;;;24.87;;
5299;SDS011;2672;42.670;23.258;2023-02-28T09:34:24;59.20;;;25.47;;
5299;SDS011;2672;42.670;23.258;2023-02-28T09:36:49;50.40;;;23.07;;
5299;SDS011;2672;42.670;23.258;2023-02-28T09:39:19;46.37;;;23.07;;
5299;SDS011;2672;42.670;23.258;2023-02-28T09:41:45;57.37;;;24.10;;
5299;SDS011;2672;42.670;23.258;2023-02-28T09:46:44;43.40;;;20.90;;
5299;SDS011;2672;42.670;23.258;2023-02-28T09:49:12;57.37;;;22.23;;
5299;SDS011;2672;42.670;23.258;2023-02-28T09:54:10;55.37;;;25.00;;
5299;SDS011;2672;42.670;23.258;2023-02-28T09:56:39;50.40;;;21.13;;
5299;SDS011;2672;42.670;23.258;2023-02-28T10:04:00;46.17;;;20.57;;
5299;SDS011;2672;42.670;23.258;2023-02-28T10:06:29;42.53;;;21.00;;
5299;SDS011;2672;42.670;23.258;2023-02-28T10:11:23;43.23;;;21.53;;
5299;SDS011;2672;42.670;23.258;2023-02-28T10:18:48;50.43;;;23.37;;
5299;SDS011;2672;42.670;23.258;2023-02-28T10:21:35;48.97;;;20.97;;
5299;SDS011;2672;42.670;23.258;2023-02-28T10:24:20;47.63;;;23.20;;
5299;SDS011;2672;42.670;23.258;2023-02-28T10:26:46;50.80;;;23.43;;
5299;SDS011;2672;42.670;23.258;2023-02-28T10:29:12;43.93;;;23.43;;
5299;SDS011;2672;42.670;23.258;2023-02-28T10:31:37;48.00;;;22.73;;
5299;SDS011;2672;42.670;23.258;2023-02-28T10:34:03;49.33;;;22.90;;
5299;SDS011;2672;42.670;23.258;2023-02-28T10:36:31;48.77;;;23.03;;
5299;SDS011;2672;42.670;23.258;2023-02-28T10:38:56;45.87;;;22.47;;
5299;SDS011;2672;42.670;23.258;2023-02-28T10:41:30;43.97;;;24.00;;
5299;SDS011;2672;42.670;23.258;2023-02-28T10:44:20;43.00;;;22.60;;
5299;SDS011;2672;42.670;23.258;2023-02-28T10:46:45;44.07;;;21.20;;
5299;SDS011;2672;42.670;23.258;2023-02-28T10:49:20;38.37;;;21.00;;
5299;SDS011;2672;42.670;23.258;2023-02-28T10:51:45;52.30;;;20.50;;
5299;SDS011;2672;42.670;23.258;2023-02-28T10:54:19;32.07;;;18.20;;
5299;SDS011;2672;42.670;23.258;2023-02-28T10:56:45;42.93;;;17.03;;
5299;SDS011;2672;42.670;23.258;2023-02-28T10:59:23;28.63;;;13.57;;
5299;SDS011;2672;42.670;23.258;2023-02-28T11:01:51;16.97;;;8.37;;
5299;SDS011;2672;42.670;23.258;2023-02-28T11:06:44;24.30;;;8.77;;
5299;SDS011;2672;42.670;23.258;2023-02-28T11:09:23;27.17;;;9.97;;
5299;SDS011;2672;42.670;23.258;2023-02-28T11:11:49;23.80;;;7.90;;
5299;SDS011;2672;42.670;23.258;2023-02-28T11:14:19;30.47;;;10.07;;
5299;SDS011;2672;42.670;23.258;2023-02-28T11:16:45;22.27;;;9.27;;
5299;SDS011;2672;42.670;23.258;2023-02-28T11:19:16;20.23;;;8.10;;
5299;SDS011;2672;42.670;23.258;2023-02-28T11:21:45;24.87;;;9.10;;
5299;SDS011;2672;42.670;23.258;2023-02-28T11:26:45;14.17;;;8.43;;
5299;SDS011;2672;42.670;23.258;2023-02-28T11:34:29;23.30;;;9.57;;
5299;SDS011;2672;42.670;23.258;2023-02-28T11:36:56;23.40;;;8.57;;
5299;SDS011;2672;42.670;23.258;2023-02-28T11:39:22;24.00;;;11.33;;
5299;SDS011;2672;42.670;23.258;2023-02-28T11:47:15;18.20;;;9.20;;
5299;SDS011;2672;42.670;23.258;2023-02-28T11:49:48;27.43;;;9.40;;
5299;SDS011;2672;42.670;23.258;2023-02-28T11:52:30;24.07;;;10.17;;
5299;SDS011;2672;42.670;23.258;2023-02-28T12:00:11;15.43;;;8.40;;
5299;SDS011;2672;42.670;23.258;2023-02-28T12:07:46;23.97;;;9.20;;
5299;SDS011;2672;42.670;23.258;2023-02-28T12:10:18;24.83;;;10.83;;
5299;SDS011;2672;42.670;23.258;2023-02-28T12:20:38;21.47;;;11.17;;
5299;SDS011;2672;42.670;23.258;2023-02-28T12:28:21;22.87;;;11.07;;
5299;SDS011;2672;42.670;23.258;2023-02-28T12:31:31;23.93;;;8.90;;
5299;SDS011;2672;42.670;23.258;2023-02-28T12:33:38;21.03;;;9.63;;
5299;SDS011;2672;42.670;23.258;2023-02-28T12:36:08;18.73;;;9.43;;
5299;SDS011;2672;42.670;23.258;2023-02-28T12:38:43;16.40;;;8.33;;
5299;SDS011;2672;42.670;23.258;2023-02-28T12:43:36;21.57;;;8.80;;
5299;SDS011;2672;42.670;23.258;2023-02-28T12:46:04;20.33;;;9.10;;
5299;SDS011;2672;42.670;23.258;2023-02-28T12:48:40;24.70;;;8.67;;
5299;SDS011;2672;42.670;23.258;2023-02-28T12:51:08;22.17;;;9.87;;
5299;SDS011;2672;42.670;23.258;2023-02-28T12:58:36;22.00;;;9.67;;
5299;SDS011;2672;42.670;23.258;2023-02-28T13:11:29;21.17;;;9.50;;
5299;SDS011;2672;42.670;23.258;2023-02-28T13:14:03;21.97;;;9.30;;
5299;SDS011;2672;42.670;23.258;2023-02-28T13:16:46;22.73;;;9.77;;
5299;SDS011;2672;42.670;23.258;2023-02-28T13:19:16;31.20;;;10.20;;
5299;SDS011;2672;42.670;23.258;2023-02-28T13:21:44;20.73;;;10.07;;
5299;SDS011;2672;42.670;23.258;2023-02-28T13:24:09;29.70;;;9.63;;
5299;SDS011;2672;42.670;23.258;2023-02-28T13:29:13;28.17;;;10.70;;
5299;SDS011;2672;42.670;23.258;2023-02-28T13:34:36;19.90;;;10.00;;
5299;SDS011;2672;42.670;23.258;2023-02-28T13:47:27;22.60;;;8.40;;
5299;SDS011;2672;42.670;23.258;2023-02-28T13:49:53;22.43;;;8.00;;
5299;SDS011;2672;42.670;23.258;2023-02-28T13:52:20;16.93;;;7.00;;
5299;SDS011;2672;42.670;23.258;2023-02-28T14:02:29;20.80;;;7.30;;
5299;SDS011;2672;42.670;23.258;2023-02-28T14:07:29;19.57;;;6.77;;
5299;SDS011;2672;42.670;23.258;2023-02-28T14:10:03;21.30;;;7.40;;
5299;SDS011;2672;42.670;23.258;2023-02-28T14:12:54;23.77;;;7.03;;
5299;SDS011;2672;42.670;23.258;2023-02-28T14:17:58;18.07;;;8.13;;
5299;SDS011;2672;42.670;23.258;2023-02-28T14:20:26;20.30;;;7.70;;
5299;SDS011;2672;42.670;23.258;2023-02-28T14:22:54;18.23;;;7.83;;
5299;SDS011;2672;42.670;23.258;2023-02-28T14:36:04;20.70;;;8.43;;
5299;SDS011;2672;42.670;23.258;2023-02-28T14:38:32;21.00;;;7.50;;
5299;SDS011;2672;42.670;23.258;2023-02-28T14:40:59;23.63;;;6.70;;
5299;SDS011;2672;42.670;23.258;2023-02-28T14:43:26;28.47;;;7.70;;
5299;SDS011;2672;42.670;23.258;2023-02-28T14:45:59;16.37;;;7.30;;
5299;SDS011;2672;42.670;23.258;2023-02-28T14:48:25;20.20;;;7.70;;
5299;SDS011;2672;42.670;23.258;2023-02-28T14:50:53;13.70;;;6.90;;
5299;SDS011;2672;42.670;23.258;2023-02-28T14:53:19;25.70;;;8.37;;
5299;SDS011;2672;42.670;23.258;2023-02-28T14:55:46;25.03;;;6.80;;
5299;SDS011;2672;42.670;23.258;2023-02-28T14:58:28;22.47;;;6.93;;
5299;SDS011;2672;42.670;23.258;2023-02-28T15:00:55;16.83;;;8.27;;
5299;SDS011;2672;42.670;23.258;2023-02-28T15:05:53;21.77;;;7.77;;
5299;SDS011;2672;42.670;23.258;2023-02-28T15:08:19;16.27;;;7.20;;
5299;SDS011;2672;42.670;23.258;2023-02-28T15:13:16;16.30;;;5.57;;
5299;SDS011;2672;42.670;23.258;2023-02-28T15:20:48;25.73;;;8.07;;
5299;SDS011;2672;42.670;23.258;2023-02-28T15:23:14;14.30;;;6.90;;
5299;SDS011;2672;42.670;23.258;2023-02-28T15:25:40;11.53;;;5.70;;
5299;SDS011;2672;42.670;23.258;2023-02-28T15:28:09;17.27;;;7.13;;
5299;SDS011;2672;42.670;23.258;2023-02-28T15:30:37;18.07;;;6.90;;
5299;SDS011;2672;42.670;23.258;2023-02-28T15:33:04;22.40;;;7.53;;
5299;SDS011;2672;42.670;23.258;2023-02-28T15:35:31;14.50;;;7.00;;
5299;SDS011;2672;42.670;23.258;2023-02-28T15:37:58;13.83;;;6.73;;
5299;SDS011;2672;42.670;23.258;2023-02-28T15:40:26;16.10;;;7.20;;
5299;SDS011;2672;42.670;23.258;2023-02-28T15:43:57;24.70;;;6.07;;
5299;SDS011;2672;42.670;23.258;2023-02-28T15:45:47;13.13;;;6.17;;
5299;SDS011;2672;42.670;23.258;2023-02-28T15:48:21;15.40;;;7.70;;
5299;SDS011;2672;42.670;23.258;2023-02-28T15:50:48;23.07;;;7.03;;
5299;SDS011;2672;42.670;23.258;2023-02-28T15:53:15;16.50;;;6.80;;
5299;SDS011;2672;42.670;23.258;2023-02-28T15:55:41;21.03;;;8.10;;
5299;SDS011;2672;42.670;23.258;2023-02-28T15:58:07;13.00;;;6.00;;
5299;SDS011;2672;42.670;23.258;2023-02-28T16:00:34;13.13;;;5.57;;
5299;SDS011;2672;42.670;23.258;2023-02-28T16:02:59;16.43;;;7.10;;
5299;SDS011;2672;42.670;23.258;2023-02-28T16:05:27;16.80;;;6.40;;
5299;SDS011;2672;42.670;23.258;2023-02-28T16:08:13;25.53;;;9.30;;
5299;SDS011;2672;42.670;23.258;2023-02-28T16:10:39;9.57;;;5.23;;
5299;SDS011;2672;42.670;23.258;2023-02-28T16:13:04;9.37;;;5.37;;
5299;SDS011;2672;42.670;23.258;2023-02-28T16:15:31;19.40;;;6.20;;
5299;SDS011;2672;42.670;23.258;2023-02-28T16:17:58;15.50;;;6.17;;
5299;SDS011;2672;42.670;23.258;2023-02-28T16:20:25;19.30;;;6.60;;
5299;SDS011;2672;42.670;23.258;2023-02-28T16:22:51;14.13;;;6.90;;
5299;SDS011;2672;42.670;23.258;2023-02-28T16:25:20;11.60;;;6.80;;
5299;SDS011;2672;42.670;23.258;2023-02-28T16:27:48;11.70;;;7.90;;
5299;SDS011;2672;42.670;23.258;2023-02-28T16:30:22;11.50;;;5.70;;
5299;SDS011;2672;42.670;23.258;2023-02-28T16:32:48;13.03;;;6.00;;
5299;SDS011;2672;42.670;23.258;2023-02-28T16:35:14;11.23;;;6.60;;
5299;SDS011;2672;42.670;23.258;2023-02-28T16:37:39;9.20;;;5.20;;
5299;SDS011;2672;42.670;23.258;2023-02-28T16:40:05;8.53;;;4.27;;
5299;SDS011;2672;42.670;23.258;2023-02-28T16:42:31;11.50;;;6.47;;
5299;SDS011;2672;42.670;23.258;2023-02-28T16:44:56;10.67;;;5.80;;
5299;SDS011;2672;42.670;23.258;2023-02-28T16:47:23;13.60;;;6.63;;
5299;SDS011;2672;42.670;23.258;2023-02-28T16:49:48;11.77;;;6.27;;
5299;SDS011;2672;42.670;23.258;2023-02-28T16:52:13;11.03;;;5.70;;
5299;SDS011;2672;42.670;23.258;2023-02-28T16:54:39;14.23;;;5.00;;
5299;SDS011;2672;42.670;23.258;2023-02-28T16:57:05;15.27;;;5.83;;
5299;SDS011;2672;42.670;23.258;2023-02-28T16:59:31;11.13;;;5.83;;
5299;SDS011;2672;42.670;23.258;2023-02-28T17:01:57;10.37;;;6.23;;
5299;SDS011;2672;42.670;23.258;2023-02-28T17:04:23;8.90;;;5.33;;
5299;SDS011;2672;42.670;23.258;2023-02-28T17:06:48;17.23;;;7.23;;
5299;SDS011;2672;42.670;23.258;2023-02-28T17:09:16;9.10;;;5.20;;
5299;SDS011;2672;42.670;23.258;2023-02-28T17:11:41;10.40;;;5.80;;
5299;SDS011;2672;42.670;23.258;2023-02-28T17:14:06;12.20;;;5.77;;
5299;SDS011;2672;42.670;23.258;2023-02-28T17:16:32;8.47;;;4.33;;
5299;SDS011;2672;42.670;23.258;2023-02-28T17:18:59;7.43;;;3.83;;